George, Iowa
Current Conditions -  °F | °C
As of 7:35 PM on Thursday 27 Nov 2014 (Local Time) from KSHL Reporting Station
Overcast Overcast  
Wind Chill: -7°   Ceiling: 9000
Heat Index: 10°   Visibility: 10mi
Dew Point:   Wind: 16mph
Humidity: 73%   Direction: 150°SSE
Pressure: 30.23"   Gusts: NA
Location:  43.34°N, 96°W
Report Text: KSHL 280135Z AUTO 15014KT 10SM FEW065 OVC090 M12/M16 A3023 RMK AO2
Loading
Personal Weather Stations






























Interactive Weather Map New forecast layout! Learn more

10-Day Weather Forecast

Advertisements
Track Severe Weather on mobile